KLAR/LAR METAR and TAF weather

Enter ICAO airport designator
Station Type Date Time Source
KLAR METAR 2019/12/08 18:53 UTC NOAA

KLAR 081853Z AUTO 21015KT 10SM CLR 04/M02 A2972 RMK AO2 SLP035 T00441022


Station Type Date Time Source
KLAR Decoded METAR 2019/12/08 18:53 UTC NOAA

LARAMIE REGIONAL AIRPORT, WY, United States (KLAR) 41-19N 105-40W 2216M
Dec 08, 2019 - 01:53 PM EST / 2019.12.08 1853 UTC
Wind: from the SSW (210 degrees) at 17 MPH (15 KT):0
Visibility: 10 mile(s):0
Sky conditions: clear
Temperature: 39.9 F (4.4 C)
Dew Point: 28.0 F (-2.2 C)
Relative Humidity: 62%
Pressure (altimeter): 29.72 in. Hg (1006 hPa)
ob: KLAR 081853Z AUTO 21015KT 10SM CLR 04/M02 A2972 RMK AO2 SLP035 T00441022
cycle: 19

Station Type Date Time Source
KLAR TAF 2019/12/08 18:36 UTC NOAA

TAF KLAR 081732Z 0818/0918 21010KT P6SM FEW045 SCT060
FM090400 29014KT P6SM BKN090
FM090500 28007KT P6SM VCSH OVC070
FM090700 29007KT 4SM -SN BR OVC025
FM090900 31007KT 5SM -SN BR BKN017
FM091300 32007KT P6SM BKN050

Example: see airport list